createdAt,value
2023-04-22T00:00:29.073Z,5.3
2023-04-22T00:01:37.791Z,1.5
2023-04-22T00:02:47.629Z,4.2
2023-04-22T00:03:56.459Z,1.6
2023-04-22T00:05:05.055Z,2.4
2023-04-22T00:06:14.693Z,1.3
2023-04-22T00:07:22.406Z,1.8
2023-04-22T00:08:32.268Z,1.7
2023-04-22T00:09:41.043Z,2.6
2023-04-22T00:10:49.671Z,1.5
2023-04-22T00:11:59.356Z,1.9
2023-04-22T00:13:08.055Z,1.6
2023-04-22T00:14:16.720Z,3.1
2023-04-22T00:15:25.384Z,1.2
2023-04-22T00:16:33.177Z,1.5
2023-04-22T00:17:42.965Z,1.5
2023-04-22T00:18:51.600Z,1.7
2023-04-22T00:19:59.280Z,1.2
2023-04-22T00:21:09.000Z,1.8
2023-04-22T00:22:17.704Z,3
2023-04-22T00:23:26.457Z,1.7
2023-04-22T00:24:35.177Z,2.8
2023-04-22T00:25:44.892Z,1.8
2023-04-22T00:26:54.611Z,1.3
2023-04-22T00:28:04.357Z,0.8
2023-04-22T00:29:13.072Z,1.4
2023-04-22T00:30:22.783Z,1.2
2023-04-22T00:31:32.511Z,1.4
2023-04-22T00:32:41.170Z,1.2
2023-04-22T00:33:50.856Z,1.3
2023-04-22T00:34:58.542Z,1.6
2023-04-22T00:36:08.205Z,1.7
2023-04-22T00:37:16.928Z,1.8
2023-04-22T00:38:25.618Z,1.9
2023-04-22T00:39:35.309Z,6.2
2023-04-22T00:40:43.976Z,2.3
2023-04-22T00:41:53.703Z,1.8
2023-04-22T00:43:02.600Z,3.5
2023-04-22T00:44:10.269Z,1.6
2023-04-22T00:45:19.061Z,1.7
2023-04-22T00:46:28.746Z,1.4
2023-04-22T00:47:37.459Z,1.3
2023-04-22T00:48:47.178Z,1.1
2023-04-22T00:49:55.875Z,1.1
2023-04-22T00:51:04.535Z,3
2023-04-22T00:52:13.223Z,1
2023-04-22T00:53:21.970Z,1.7
2023-04-22T00:54:32.621Z,1.3
2023-04-22T00:55:41.307Z,1.7
2023-04-22T00:56:50.023Z,1.2
2023-04-22T00:57:59.744Z,1.2
2023-04-22T00:59:08.423Z,1
2023-04-22T01:00:18.149Z,1
2023-04-22T01:01:26.926Z,1.5
2023-04-22T01:02:35.597Z,1.9
2023-04-22T01:03:45.281Z,2
2023-04-22T01:04:53.882Z,2.2
2023-04-22T01:06:01.577Z,1.7
2023-04-22T01:07:11.240Z,1.9
2023-04-22T01:08:46.074Z,2.1
2023-04-22T01:09:54.693Z,2.3
2023-04-22T01:11:03.348Z,3.4
2023-04-22T01:12:11.986Z,3.5
2023-04-22T01:13:21.673Z,4
2023-04-22T01:14:30.380Z,5.1
2023-04-22T01:15:39.997Z,6.2
2023-04-22T01:16:49.754Z,5.8
2023-04-22T01:17:58.430Z,7.7
2023-04-22T01:19:06.029Z,6
2023-04-22T01:20:15.686Z,8
2023-04-22T01:21:24.367Z,3.9
2023-04-22T01:22:33.000Z,3.6
2023-04-22T01:23:41.685Z,4.3
2023-04-22T01:24:50.378Z,3.5
2023-04-22T01:25:59.999Z,3
2023-04-22T01:27:09.643Z,2.4
2023-04-22T01:28:18.314Z,2.5
2023-04-22T01:29:27.959Z,3.8
2023-04-22T01:30:36.626Z,3.8
2023-04-22T01:31:45.281Z,4.2
2023-04-22T01:32:54.992Z,2.1
2023-04-22T01:34:04.604Z,2
2023-04-22T01:35:14.258Z,2.1
2023-04-22T01:36:22.902Z,1.1
2023-04-22T01:37:32.564Z,0.9
2023-04-22T01:38:42.216Z,1.5
2023-04-22T01:39:49.871Z,2.3
2023-04-22T01:40:58.541Z,1.4
2023-04-22T01:42:08.157Z,1.2
2023-04-22T01:43:16.814Z,1.6
2023-04-22T01:44:24.482Z,1.9
2023-04-22T01:45:34.218Z,1.8
2023-04-22T01:46:43.771Z,2
2023-04-22T01:47:52.492Z,1.6
2023-04-22T01:49:02.132Z,1.5
2023-04-22T01:50:10.791Z,2.1
2023-04-22T01:51:20.442Z,1.1
2023-04-22T01:52:29.086Z,1.3
2023-04-22T01:53:37.745Z,1.5
2023-04-22T01:54:47.388Z,1.1
2023-04-22T01:55:56.013Z,0.9
2023-04-22T01:57:04.690Z,1.1
2023-04-22T01:58:14.308Z,2.9
2023-04-22T01:59:24.022Z,1.8
2023-04-22T02:00:33.680Z,1
2023-04-22T02:01:43.375Z,1
2023-04-22T02:02:52.056Z,0.7
2023-04-22T02:04:01.648Z,1.2
2023-04-22T02:05:10.355Z,1
2023-04-22T02:06:18.960Z,0.7
2023-04-22T02:07:28.622Z,1.2
2023-04-22T02:08:36.278Z,1.1
2023-04-22T02:09:46.165Z,1.1
2023-04-22T02:10:55.573Z,0.8
2023-04-22T02:12:04.231Z,0.9
2023-04-22T02:13:13.999Z,1.5
2023-04-22T02:14:22.579Z,1.8
2023-04-22T02:15:32.254Z,1.2
2023-04-22T02:16:41.924Z,1.2
2023-04-22T02:17:50.786Z,1.2
2023-04-22T02:19:00.449Z,1
2023-04-22T02:20:09.080Z,1.9
2023-04-22T02:21:17.693Z,1.1
2023-04-22T02:22:27.337Z,2.2
2023-04-22T02:23:35.995Z,1.5
2023-04-22T02:24:44.665Z,1.3
2023-04-22T02:25:53.325Z,1.2
2023-04-22T02:27:00.957Z,1.4
2023-04-22T02:28:10.607Z,1.6
2023-04-22T02:29:19.344Z,1.4
2023-04-22T02:30:27.945Z,1.3
2023-04-22T02:31:37.640Z,2.1
2023-04-22T02:32:46.295Z,1.2
2023-04-22T02:33:55.939Z,1.7
2023-04-22T02:35:04.594Z,1.3
2023-04-22T02:36:13.292Z,1.6
2023-04-22T02:37:22.974Z,1.6
2023-04-22T02:38:31.597Z,1.3
2023-04-22T02:39:40.577Z,2.9
2023-04-22T02:40:49.906Z,3.2
2023-04-22T02:41:59.624Z,1.6
2023-04-22T02:43:09.260Z,1.3
2023-04-22T02:44:18.930Z,1.4
2023-04-22T02:45:26.599Z,1.5
2023-04-22T02:46:36.248Z,1.9
2023-04-22T02:47:44.929Z,1.8
2023-04-22T02:48:54.586Z,1.9
2023-04-22T02:50:04.224Z,3.2
2023-04-22T02:51:13.884Z,1.4
2023-04-22T02:52:23.543Z,1
2023-04-22T02:53:32.181Z,2.2
2023-04-22T02:54:41.904Z,2
2023-04-22T02:55:51.569Z,1.3
2023-04-22T02:57:01.220Z,1.4
2023-04-22T02:58:08.888Z,1.7
2023-04-22T02:59:18.577Z,1.2
2023-04-22T03:00:28.207Z,1.1
2023-04-22T03:01:36.883Z,1.1
2023-04-22T03:02:46.579Z,1.8
2023-04-22T03:03:55.467Z,3.1
2023-04-22T03:05:04.882Z,1.1
2023-04-22T03:06:13.550Z,1.3
2023-04-22T03:07:22.187Z,1.8
2023-04-22T03:08:31.842Z,3
2023-04-22T03:09:40.736Z,1.5
2023-04-22T03:10:49.179Z,1.3
2023-04-22T03:11:57.829Z,1.3
2023-04-22T03:13:06.482Z,1.6
2023-04-22T03:14:16.152Z,1.3
2023-04-22T03:15:25.795Z,1.5
2023-04-22T03:16:33.486Z,1.3
2023-04-22T03:17:43.285Z,1.5
2023-04-22T03:18:51.856Z,1.8
2023-04-22T03:20:00.541Z,1.8
2023-04-22T03:21:09.197Z,1.8
2023-04-22T03:22:18.848Z,1.7
2023-04-22T03:23:28.483Z,1.4
2023-04-22T03:24:38.139Z,2.5
2023-04-22T03:25:44.792Z,1.9
2023-04-22T03:26:54.465Z,1.7
2023-04-22T03:28:03.123Z,1.9
2023-04-22T03:29:12.782Z,1.7
2023-04-22T03:30:20.499Z,1.7
2023-04-22T03:31:28.150Z,1.4
2023-04-22T03:32:37.804Z,1.5
2023-04-22T03:33:46.562Z,1.5
2023-04-22T03:34:54.085Z,1
2023-04-22T03:36:03.745Z,1.7
2023-04-22T03:37:12.396Z,1.5
2023-04-22T03:38:22.051Z,1.6
2023-04-22T03:39:30.721Z,1.7
2023-04-22T03:40:39.398Z,1.7
2023-04-22T03:41:47.026Z,1.3
2023-04-22T03:42:56.715Z,1.3
2023-04-22T03:44:06.361Z,2.4
2023-04-22T03:45:15.063Z,4.5
2023-04-22T03:46:23.947Z,1.2
2023-04-22T03:47:31.362Z,1.6
2023-04-22T03:48:40.995Z,1.7
2023-04-22T03:49:50.697Z,1.1
2023-04-22T03:50:58.304Z,1.1
2023-04-22T03:52:07.954Z,1.8
2023-04-22T03:53:17.588Z,1.2
2023-04-22T03:54:27.243Z,1.3
2023-04-22T03:55:37.009Z,0.7
2023-04-22T03:56:44.672Z,0.5
2023-04-22T03:57:54.328Z,1.3
2023-04-22T03:59:03.017Z,1.3
2023-04-22T04:00:11.691Z,1
2023-04-22T04:01:21.375Z,0.9
2023-04-22T04:02:30.098Z,0.6
2023-04-22T04:03:40.074Z,1
2023-04-22T04:04:48.559Z,0.9
2023-04-22T04:05:56.098Z,1.1
2023-04-22T04:07:04.686Z,2.7
2023-04-22T04:08:13.330Z,1.3
2023-04-22T04:09:22.041Z,1.2
2023-04-22T04:10:31.716Z,0.9
2023-04-22T04:11:41.401Z,1.2
2023-04-22T04:12:51.034Z,1.9
2023-04-22T04:13:59.702Z,7.1
2023-04-22T04:15:09.390Z,0.7
2023-04-22T04:16:19.063Z,0.7
2023-04-22T04:17:27.701Z,0.9
2023-04-22T04:18:36.327Z,1.2
2023-04-22T04:19:46.069Z,1
2023-04-22T04:20:55.703Z,2.2
2023-04-22T04:22:05.384Z,0.7
2023-04-22T04:23:15.038Z,0.5
2023-04-22T04:24:23.808Z,3.3
2023-04-22T04:25:33.463Z,1.4
2023-04-22T04:26:43.117Z,1.8
2023-04-22T04:27:50.752Z,1.5
2023-04-22T04:29:00.462Z,1
2023-04-22T04:30:10.128Z,0.9
2023-04-22T04:31:18.825Z,1.1
2023-04-22T04:32:27.562Z,0.9
2023-04-22T04:33:36.061Z,0.7
2023-04-22T04:34:45.734Z,0.9
2023-04-22T04:35:54.372Z,1.2
2023-04-22T04:37:02.044Z,1
2023-04-22T04:38:11.722Z,1.7
2023-04-22T04:39:20.367Z,2.1
2023-04-22T04:40:29.068Z,1.1
2023-04-22T04:41:38.723Z,0.9
2023-04-22T04:42:47.380Z,0.7
2023-04-22T04:43:57.013Z,1.3
2023-04-22T04:45:05.678Z,1.2
2023-04-22T04:46:14.322Z,0.9
2023-04-22T04:47:23.977Z,1.6
2023-04-22T04:48:33.619Z,0.9
2023-04-22T04:49:43.462Z,0.8
2023-04-22T04:50:50.951Z,1
2023-04-22T04:51:58.613Z,1.9
2023-04-22T04:53:09.261Z,1.9
2023-04-22T04:54:18.931Z,1.3
2023-04-22T04:55:29.698Z,1.4
2023-04-22T04:56:39.359Z,1.2
2023-04-22T04:57:48.012Z,1.6
2023-04-22T04:58:57.670Z,2.3
2023-04-22T05:00:06.362Z,1.3
2023-04-22T05:01:14.015Z,1.1
2023-04-22T05:02:23.804Z,1.3
2023-04-22T05:03:33.418Z,1
2023-04-22T05:04:41.087Z,1.3
2023-04-22T05:05:49.650Z,1
2023-04-22T05:06:59.411Z,1.2
2023-04-22T05:08:09.063Z,1.1
2023-04-22T05:09:17.734Z,0.7
2023-04-22T05:10:25.428Z,1.7
2023-04-22T05:11:35.085Z,0.8
2023-04-22T05:12:42.739Z,2.2
2023-04-22T05:13:51.411Z,1.1
2023-04-22T05:15:01.065Z,1.4
2023-04-22T05:16:09.862Z,1.9
2023-04-22T05:17:17.463Z,3
2023-04-22T05:18:26.114Z,3.5
2023-04-22T05:19:34.772Z,3.1
2023-04-22T05:20:44.457Z,3.8
2023-04-22T05:21:54.101Z,2.9
2023-04-22T05:23:01.779Z,2.2
2023-04-22T05:24:12.473Z,2.6
2023-04-22T05:25:21.131Z,2.1
2023-04-22T05:26:29.791Z,2.1
2023-04-22T05:27:39.462Z,2.3
2023-04-22T05:28:47.141Z,2.1
2023-04-22T05:29:56.818Z,1.7
2023-04-22T05:31:06.638Z,1.9
2023-04-22T05:32:14.365Z,2
2023-04-22T05:33:24.005Z,2.2
2023-04-22T05:34:32.659Z,1.7
2023-04-22T05:35:41.370Z,1.5
2023-04-22T05:36:50.014Z,2.6
2023-04-22T05:37:58.664Z,1.4
2023-04-22T05:39:06.328Z,1.1
2023-04-22T05:40:15.970Z,0.9
2023-04-22T05:41:25.629Z,0.7
2023-04-22T05:42:35.325Z,0.8
2023-04-22T05:43:44.954Z,0.8
2023-04-22T05:44:52.627Z,1.2
2023-04-22T05:46:02.338Z,0.6
2023-04-22T05:47:10.936Z,1.8
2023-04-22T05:48:18.588Z,2.4
2023-04-22T05:49:28.247Z,1.4
2023-04-22T05:50:37.916Z,1.9
2023-04-22T05:51:46.577Z,2
2023-04-22T05:52:55.226Z,1.3
2023-04-22T05:54:02.888Z,2
2023-04-22T05:55:12.574Z,1.4
2023-04-22T05:56:21.387Z,1.1
2023-04-22T05:57:30.051Z,0.9
2023-04-22T05:58:39.726Z,0.9
2023-04-22T05:59:48.363Z,1.5
2023-04-22T06:00:58.095Z,1.3
2023-04-22T06:02:08.058Z,1.2
2023-04-22T06:03:16.867Z,5.8
2023-04-22T06:04:26.547Z,1.1
2023-04-22T06:05:35.062Z,1.4
2023-04-22T06:06:42.613Z,1.2
2023-04-22T06:07:52.262Z,0.9
2023-04-22T06:09:00.921Z,0.7
2023-04-22T06:10:09.613Z,1.1
2023-04-22T06:11:18.324Z,1.5
2023-04-22T06:12:26.946Z,0.7
2023-04-22T06:13:36.594Z,1.4
2023-04-22T06:14:46.304Z,1.7
2023-04-22T06:15:53.947Z,4.2
2023-04-22T06:17:03.585Z,1.6
2023-04-22T06:18:14.233Z,1.5
2023-04-22T06:19:23.896Z,0.7
2023-04-22T06:20:32.577Z,1.3
2023-04-22T06:21:41.231Z,0.5
2023-04-22T06:22:50.878Z,0.7
2023-04-22T06:23:59.543Z,0.8
2023-04-22T06:25:08.188Z,0.9
2023-04-22T06:26:17.856Z,1.1
2023-04-22T06:27:27.504Z,0.8
2023-04-22T06:28:37.158Z,1
2023-04-22T06:29:45.798Z,1.5
2023-04-22T06:30:54.547Z,0.8
2023-04-22T06:32:04.112Z,0.7
2023-04-22T06:33:12.868Z,0.8
2023-04-22T06:34:21.407Z,2.4
2023-04-22T06:35:31.085Z,1.8
2023-04-22T06:36:39.910Z,1.6
2023-04-22T06:37:48.557Z,0.7
2023-04-22T06:38:57.230Z,1.2
2023-04-22T06:40:07.867Z,0.7
2023-04-22T06:41:17.552Z,0.7
2023-04-22T06:42:26.188Z,0.8
2023-04-22T06:43:35.840Z,0.4
2023-04-22T06:44:45.499Z,0.6
2023-04-22T06:45:54.175Z,1.3
2023-04-22T06:47:02.969Z,0.8
2023-04-22T06:48:12.510Z,1
2023-04-22T06:49:20.148Z,0.6
2023-04-22T06:50:29.875Z,0.6
2023-04-22T06:51:38.582Z,0.6
2023-04-22T06:52:46.214Z,0.5
2023-04-22T06:53:55.854Z,0.5
2023-04-22T06:55:05.494Z,0.8
2023-04-22T06:56:14.135Z,0.5
2023-04-22T06:57:23.806Z,0.5
2023-04-22T06:58:32.447Z,0.6
2023-04-22T06:59:43.247Z,0.9
2023-04-22T07:00:51.913Z,0.5
2023-04-22T07:02:00.665Z,0.5
2023-04-22T07:03:10.383Z,0.4
2023-04-22T07:04:18.951Z,0.8
2023-04-22T07:05:27.576Z,0.9
2023-04-22T07:06:37.241Z,0.5
2023-04-22T07:07:46.966Z,0.9
2023-04-22T07:08:56.629Z,1.3
2023-04-22T07:10:06.269Z,0.6
2023-04-22T07:11:15.954Z,0.3
2023-04-22T07:12:26.644Z,0.7
2023-04-22T07:13:35.292Z,0.6
2023-04-22T07:14:43.957Z,0.8
2023-04-22T07:15:53.639Z,0.6
2023-04-22T07:17:01.291Z,0.5
2023-04-22T07:18:11.010Z,0.3
2023-04-22T07:19:19.758Z,0.4
2023-04-22T07:20:28.377Z,0.2
2023-04-22T07:21:38.070Z,0.7
2023-04-22T07:22:46.716Z,0.8
2023-04-22T07:23:56.389Z,0.3
2023-04-22T07:25:05.026Z,0.8
2023-04-22T07:26:12.751Z,0.5
2023-04-22T07:27:22.470Z,0.4
2023-04-22T07:28:31.112Z,0.3
2023-04-22T07:29:40.972Z,0.2
2023-04-22T07:30:50.474Z,0.1
2023-04-22T07:31:59.214Z,0.5
2023-04-22T07:33:08.810Z,0.2
2023-04-22T07:34:18.448Z,0.1
2023-04-22T07:35:28.266Z,0.3
2023-04-22T07:36:36.828Z,0.1
2023-04-22T07:37:46.526Z,0.8
2023-04-22T07:38:55.182Z,0.8
2023-04-22T07:40:04.811Z,0.2
2023-04-22T07:41:14.489Z,1.5
2023-04-22T07:42:23.177Z,0.1
2023-04-22T07:43:32.832Z,0.1
2023-04-22T07:44:41.469Z,0.3
2023-04-22T07:45:49.159Z,0.8
2023-04-22T07:46:58.808Z,0.2
2023-04-22T07:48:07.480Z,0.6
2023-04-22T07:49:15.123Z,0.2
2023-04-22T07:50:23.848Z,0.3
2023-04-22T07:51:32.576Z,0.1
2023-04-22T07:52:42.268Z,0.4
2023-04-22T07:53:50.926Z,0.2
2023-04-22T07:54:58.682Z,0.4
2023-04-22T07:56:07.330Z,0.6
2023-04-22T07:57:17.797Z,0.2
2023-04-22T07:58:26.451Z,0.3
2023-04-22T07:59:34.079Z,0.1
2023-04-22T08:00:42.729Z,0.3
2023-04-22T08:01:52.379Z,0.1
2023-04-22T08:03:01.157Z,0.6
2023-04-22T08:04:09.877Z,1.2
2023-04-22T08:05:19.387Z,0.3
2023-04-22T08:06:28.132Z,0.6
2023-04-22T08:07:36.715Z,0.2
2023-04-22T08:08:46.364Z,0.5
2023-04-22T08:09:54.031Z,0.2
2023-04-22T08:11:03.699Z,0.8
2023-04-22T08:12:12.368Z,0.7
2023-04-22T08:13:20.077Z,0.1
2023-04-22T08:14:29.728Z,0.2
2023-04-22T08:15:39.438Z,0.3
2023-04-22T08:16:48.062Z,0.3
2023-04-22T08:17:56.775Z,0.2
2023-04-22T08:19:04.418Z,0.5
2023-04-22T08:20:14.109Z,0.2
2023-04-22T08:21:22.766Z,0.3
2023-04-22T08:22:32.433Z,0.1
2023-04-22T08:23:42.136Z,0.1
2023-04-22T08:24:50.815Z,0.1
2023-04-22T08:26:00.474Z,0.2
2023-04-22T08:27:09.150Z,0.1
2023-04-22T08:28:16.858Z,1.1
2023-04-22T08:29:26.537Z,0.1
2023-04-22T08:30:36.206Z,0.7
2023-04-22T08:31:45.993Z,2.2
2023-04-22T08:32:55.838Z,0.9
2023-04-22T08:34:03.488Z,0.2
2023-04-22T08:35:13.142Z,0.5
2023-04-22T08:36:21.831Z,0.3
2023-04-22T08:37:29.472Z,0.1
2023-04-22T08:38:39.182Z,0.6
2023-04-22T08:39:48.915Z,0.5
2023-04-22T08:40:57.552Z,0.1
2023-04-22T08:42:07.202Z,0.5
2023-04-22T08:43:17.734Z,0.9
2023-04-22T08:44:27.419Z,0.5
2023-04-22T08:45:37.110Z,1
2023-04-22T08:46:44.761Z,0.2
2023-04-22T08:47:54.419Z,0.1
2023-04-22T08:49:03.091Z,0.1
2023-04-22T08:50:12.756Z,0.1
2023-04-22T08:51:22.435Z,0.1
2023-04-22T08:52:31.130Z,0.2
2023-04-22T08:53:38.850Z,0.1
2023-04-22T08:54:48.518Z,0.1
2023-04-22T08:55:57.178Z,0.2
2023-04-22T08:57:06.828Z,0.4
2023-04-22T08:58:15.517Z,0.2
2023-04-22T08:59:24.142Z,0.1
2023-04-22T09:00:33.810Z,0.1
2023-04-22T09:01:42.548Z,0.1
2023-04-22T09:02:51.154Z,0.2
2023-04-22T09:03:59.951Z,0.1
2023-04-22T09:05:08.445Z,0.2
2023-04-22T09:06:18.095Z,0.2
2023-04-22T09:07:26.775Z,0.1
2023-04-22T09:08:35.472Z,0.5
2023-04-22T09:09:45.219Z,0
2023-04-22T09:10:53.886Z,0.1
2023-04-22T09:12:03.624Z,0.7
2023-04-22T09:13:13.274Z,0
2023-04-22T09:14:21.968Z,0.6
2023-04-22T09:15:31.626Z,0.5
2023-04-22T09:16:40.295Z,0.6
2023-04-22T09:17:48.956Z,0.8
2023-04-22T09:18:58.623Z,0.1
2023-04-22T09:20:07.296Z,0
2023-04-22T09:21:15.929Z,0.4
2023-04-22T09:22:24.599Z,0.1
2023-04-22T09:23:33.272Z,0.2
2023-04-22T09:24:42.979Z,0.3
2023-04-22T09:25:50.642Z,1.8
2023-04-22T09:26:58.287Z,0.3
2023-04-22T09:28:07.995Z,0.1
2023-04-22T09:29:17.648Z,0.5
2023-04-22T09:30:25.354Z,0.1
2023-04-22T09:31:35.000Z,0.2
2023-04-22T09:32:43.681Z,0.1
2023-04-22T09:33:52.302Z,0.3
2023-04-22T09:35:01.967Z,0.1
2023-04-22T09:36:10.640Z,0.3
2023-04-22T09:37:19.265Z,0.2
2023-04-22T09:38:27.920Z,0.6
2023-04-22T09:39:36.773Z,0.5
2023-04-22T09:40:46.323Z,0.4
2023-04-22T09:41:55.973Z,0.2
2023-04-22T09:43:04.649Z,0.2
2023-04-22T09:44:14.444Z,0.1
2023-04-22T09:45:23.061Z,0.1
2023-04-22T09:46:31.739Z,0.2
2023-04-22T09:47:40.388Z,0.4
2023-04-22T09:48:50.039Z,0.2
2023-04-22T09:49:59.723Z,0.4
2023-04-22T09:51:08.385Z,0.3
2023-04-22T09:52:15.052Z,0.4
2023-04-22T09:53:24.709Z,0.1
2023-04-22T09:54:34.409Z,0.7
2023-04-22T09:55:43.068Z,0.2
2023-04-22T09:56:51.712Z,0.2
2023-04-22T09:58:01.395Z,0.2
2023-04-22T09:59:11.089Z,0.4
2023-04-22T10:00:19.813Z,0.1
2023-04-22T10:01:28.457Z,0.2
2023-04-22T10:02:38.164Z,0.2
2023-04-22T10:03:47.835Z,1.8
2023-04-22T10:04:57.490Z,0.2
2023-04-22T10:06:06.166Z,1.2
2023-04-22T10:07:13.806Z,0.1
2023-04-22T10:08:23.544Z,0.1
2023-04-22T10:09:33.252Z,0.3
2023-04-22T10:10:40.933Z,0.5
2023-04-22T10:11:50.627Z,0.4
2023-04-22T10:12:59.300Z,0.2
2023-04-22T10:14:07.989Z,0.4
2023-04-22T10:15:17.740Z,0.8
2023-04-22T10:16:27.516Z,0.1
2023-04-22T10:17:37.128Z,0.1
2023-04-22T10:18:45.755Z,0.1
2023-04-22T10:19:53.480Z,0.3
2023-04-22T10:21:03.228Z,0.2
2023-04-22T10:22:10.871Z,0.5
2023-04-22T10:23:20.537Z,0.2
2023-04-22T10:24:29.262Z,0.1
2023-04-22T10:25:37.859Z,0.3
2023-04-22T10:26:47.534Z,3.8
2023-04-22T10:27:56.224Z,0.4
2023-04-22T10:29:05.885Z,0.1
2023-04-22T10:30:15.590Z,0.2
2023-04-22T10:31:24.279Z,0.3
2023-04-22T10:32:33.950Z,0.1
2023-04-22T10:33:43.584Z,0.1
2023-04-22T10:34:51.287Z,0
2023-04-22T10:36:00.955Z,0.1
2023-04-22T10:37:09.662Z,0.3
2023-04-22T10:38:18.306Z,0.2
2023-04-22T10:39:28.067Z,0
2023-04-22T10:40:37.730Z,0.2
2023-04-22T10:41:46.424Z,0.1
2023-04-22T10:42:55.062Z,0.1
2023-04-22T10:44:03.703Z,0.1
2023-04-22T10:45:13.452Z,0.3
2023-04-22T10:46:23.156Z,0
2023-04-22T10:47:31.770Z,0.3
2023-04-22T10:48:41.450Z,0.1
2023-04-22T10:49:50.103Z,0.2
2023-04-22T10:50:59.783Z,0.2
2023-04-22T10:52:09.455Z,0
2023-04-22T10:53:18.083Z,0.1
2023-04-22T10:54:30.517Z,0
2023-04-22T10:55:38.469Z,0.1
2023-04-22T10:56:51.788Z,0.1
2023-04-22T10:57:58.758Z,0
2023-04-22T10:59:08.462Z,0.1
2023-04-22T11:00:18.142Z,0
2023-04-22T11:01:26.832Z,0.1
2023-04-22T11:02:36.574Z,0.1
2023-04-22T11:03:46.265Z,0.1
2023-04-22T11:04:55.861Z,0.2
2023-04-22T11:06:03.538Z,0.1
2023-04-22T11:07:12.193Z,0.2
2023-04-22T11:08:20.873Z,0
2023-04-22T11:09:30.578Z,0.2
2023-04-22T11:10:41.517Z,0.2
2023-04-22T11:11:50.023Z,0.2
2023-04-22T11:12:59.745Z,0.3
2023-04-22T11:14:09.446Z,0.2
2023-04-22T11:15:18.128Z,0.2
2023-04-22T11:16:27.805Z,0
2023-04-22T11:17:36.452Z,0.1
2023-04-22T11:18:46.102Z,0.4
2023-04-22T11:19:55.045Z,0.4
2023-04-22T11:21:03.469Z,0.3
2023-04-22T11:22:13.159Z,0.3
2023-04-22T11:23:21.976Z,43.599998
2023-04-22T11:24:31.661Z,0.2
2023-04-22T11:25:41.351Z,0.1
2023-04-22T11:26:50.030Z,0.3
2023-04-22T11:27:59.710Z,0
2023-04-22T11:29:09.391Z,0.1
2023-04-22T11:30:18.165Z,0.1
2023-04-22T11:31:26.869Z,0.1
2023-04-22T11:32:35.526Z,0.3
2023-04-22T11:33:46.885Z,0.3
2023-04-22T11:34:56.812Z,1.3
2023-04-22T11:36:05.549Z,0.1
2023-04-22T11:37:13.172Z,0.1
2023-04-22T11:38:22.817Z,0.3
2023-04-22T11:39:31.474Z,0.5
2023-04-22T11:40:42.911Z,0.1
2023-04-22T11:41:51.761Z,0.3
2023-04-22T11:43:00.421Z,0.2
2023-04-22T11:44:09.098Z,0
2023-04-22T11:45:16.777Z,0.3
2023-04-22T11:46:26.457Z,0.1
2023-04-22T11:47:36.083Z,0
2023-04-22T11:48:44.744Z,0
2023-04-22T11:49:52.474Z,0.3
2023-04-22T11:51:02.364Z,0
2023-04-22T11:52:10.047Z,0.2
2023-04-22T11:53:18.791Z,0.4
2023-04-22T11:54:28.528Z,0
2023-04-22T11:55:37.326Z,0.1
2023-04-22T11:56:48.020Z,0.1
2023-04-22T11:57:56.740Z,0.3
2023-04-22T11:59:04.411Z,0.1
2023-04-22T12:00:14.112Z,0.3
2023-04-22T12:01:23.864Z,0.1
2023-04-22T12:02:32.645Z,0.3
2023-04-22T12:03:41.414Z,0.2
2023-04-22T12:04:50.027Z,0.1
2023-04-22T12:05:59.707Z,0
2023-04-22T12:07:09.412Z,0.1
2023-04-22T12:08:17.080Z,0
2023-04-22T12:09:25.756Z,0.2
2023-04-22T12:10:34.442Z,0.2
2023-04-22T12:11:43.097Z,0.9
2023-04-22T12:12:51.791Z,0.3
2023-04-22T12:14:00.472Z,0.1
2023-04-22T12:15:12.784Z,0
2023-04-22T12:16:20.841Z,0.3
2023-04-22T12:17:29.500Z,5.3
2023-04-22T12:18:39.166Z,1.1
2023-04-22T12:19:46.834Z,600.59997
2023-04-22T12:20:55.549Z,1741.3
2023-04-22T12:22:04.244Z,1613.3
2023-04-22T12:23:11.944Z,0.2
2023-04-22T12:24:21.649Z,0
2023-04-22T12:25:31.296Z,0.4
2023-04-22T12:26:40.005Z,0.2
2023-04-22T12:27:49.699Z,0.2
2023-04-22T12:28:58.501Z,0
2023-04-22T12:30:08.195Z,27.4
2023-04-22T12:31:17.909Z,0
2023-04-22T12:32:27.556Z,1.8
2023-04-22T12:33:37.240Z,1.1
2023-04-22T12:34:45.900Z,1689.6999
2023-04-22T12:35:55.592Z,1477.0999
2023-04-22T12:37:05.321Z,1490.5
2023-04-22T12:38:13.994Z,1684.0999
2023-04-22T12:39:23.684Z,1630.5999
2023-04-22T12:40:33.378Z,1573.3
2023-04-22T12:41:41.053Z,1629.6999
2023-04-22T12:42:50.791Z,0.6
2023-04-22T12:44:00.515Z,0.3
2023-04-22T12:45:10.201Z,0.1
2023-04-22T12:46:20.023Z,0.2
2023-04-22T12:47:29.581Z,0
2023-04-22T12:48:38.247Z,0.3
2023-04-22T12:49:47.223Z,0.7
2023-04-22T12:50:55.581Z,0.3
2023-04-22T12:52:05.330Z,0.1
2023-04-22T12:53:15.005Z,0.4
2023-04-22T12:54:23.726Z,0.4
2023-04-22T12:55:33.416Z,0.1
2023-04-22T12:56:42.095Z,0.1
2023-04-22T12:57:50.725Z,0.1
2023-04-22T12:58:59.405Z,0.1
2023-04-22T13:00:09.064Z,0.2
2023-04-22T13:01:18.762Z,0
2023-04-22T13:02:28.532Z,0
2023-04-22T13:03:37.235Z,0.1
2023-04-22T13:04:46.772Z,0.1
2023-04-22T13:05:55.435Z,0
2023-04-22T13:07:04.115Z,0.1
2023-04-22T13:08:12.809Z,0.4
2023-04-22T13:09:21.474Z,0.3
2023-04-22T13:10:31.159Z,0
2023-04-22T13:11:40.823Z,0
2023-04-22T13:12:49.522Z,0
2023-04-22T13:13:59.161Z,0
2023-04-22T13:15:08.830Z,0.1
2023-04-22T13:16:18.509Z,0.1
2023-04-22T13:17:28.285Z,0.1
2023-04-22T13:18:36.966Z,0
2023-04-22T13:19:46.608Z,0.3
2023-04-22T13:20:55.351Z,0.3
2023-04-22T13:22:03.098Z,0
2023-04-22T13:23:12.774Z,0
2023-04-22T13:24:22.475Z,0.1
2023-04-22T13:25:32.153Z,0.1
2023-04-22T13:26:40.826Z,0.1
2023-04-22T13:27:49.530Z,0.1
2023-04-22T13:28:57.249Z,0.1
2023-04-22T13:30:07.996Z,0.3
2023-04-22T13:31:16.701Z,0.1
2023-04-22T13:32:26.383Z,0
2023-04-22T13:33:36.061Z,0
2023-04-22T13:34:44.739Z,0.1
2023-04-22T13:35:54.407Z,0.1
2023-04-22T13:37:04.129Z,0.1
2023-04-22T13:38:11.777Z,0.4
2023-04-22T13:39:21.544Z,0.3
2023-04-22T13:40:31.283Z,0.2
2023-04-22T13:41:40.968Z,0.1
2023-04-22T13:42:49.702Z,0
2023-04-22T13:43:59.384Z,1
2023-04-22T13:45:09.029Z,0.1
2023-04-22T13:46:18.758Z,0.3
2023-04-22T13:47:27.380Z,0.2
2023-04-22T13:48:37.014Z,0.5
2023-04-22T13:49:46.687Z,0
2023-04-22T13:50:56.356Z,1.3
2023-04-22T13:52:05.008Z,0.2
2023-04-22T13:53:13.762Z,0.1
2023-04-22T13:54:23.463Z,0.3
2023-04-22T13:55:33.116Z,1
2023-04-22T13:56:40.790Z,0.4
2023-04-22T13:57:50.573Z,0.6
2023-04-22T13:58:59.240Z,0
2023-04-22T14:00:08.917Z,0.4
2023-04-22T14:01:18.568Z,0.4
2023-04-22T14:02:27.335Z,0.1
2023-04-22T14:03:37.000Z,0.1
2023-04-22T14:04:45.620Z,0.5
2023-04-22T14:05:54.288Z,0.1
2023-04-22T14:07:04.111Z,0.1
2023-04-22T14:08:12.612Z,0.6
2023-04-22T14:09:21.268Z,0.8
2023-04-22T14:10:30.963Z,0.2
2023-04-22T14:11:38.624Z,0.2
2023-04-22T14:12:48.293Z,0.3
2023-04-22T14:13:56.948Z,0.5
2023-04-22T14:15:06.600Z,0.3
2023-04-22T14:16:16.388Z,0.2
2023-04-22T14:17:25.085Z,0.4
2023-04-22T14:18:34.795Z,0.2
2023-04-22T14:19:43.648Z,0.1
2023-04-22T14:20:52.184Z,0.3
2023-04-22T14:22:01.880Z,0.1
2023-04-22T14:23:09.564Z,0.4
2023-04-22T14:24:16.201Z,0.2
2023-04-22T14:25:25.913Z,0.3
2023-04-22T14:26:35.572Z,0.3
2023-04-22T14:27:44.266Z,0.5
2023-04-22T14:28:53.974Z,0.4
2023-04-22T14:30:02.728Z,0.3
2023-04-22T14:31:12.445Z,0.1
2023-04-22T14:32:21.205Z,0.5
2023-04-22T14:33:29.091Z,0.6
2023-04-22T14:34:38.821Z,3.7
2023-04-22T14:35:47.550Z,0.6
2023-04-22T14:36:56.297Z,0.5
2023-04-22T14:38:04.995Z,0.2
2023-04-22T14:39:13.672Z,0
2023-04-22T14:40:23.479Z,0.4
2023-04-22T14:41:32.156Z,0.1
2023-04-22T14:42:39.959Z,0.1
2023-04-22T14:43:49.630Z,0.2
2023-04-22T14:44:58.352Z,0.2
2023-04-22T14:46:07.051Z,0.4
2023-04-22T14:47:16.728Z,0.2
2023-04-22T14:48:25.515Z,0
2023-04-22T14:49:35.168Z,0.6
2023-04-22T14:50:43.847Z,0.7
2023-04-22T14:51:52.537Z,0.1
2023-04-22T14:53:03.230Z,0.2
2023-04-22T14:54:11.888Z,0.2
2023-04-22T14:55:23.591Z,0.5
2023-04-22T14:56:31.623Z,8
2023-04-22T14:57:40.272Z,0.4
2023-04-22T14:58:58.308Z,0.2
2023-04-22T15:00:08.127Z,0.2
2023-04-22T15:01:15.833Z,1.7
2023-04-22T15:02:25.581Z,0.6
2023-04-22T15:03:35.502Z,0.2
2023-04-22T15:04:43.879Z,2.6
2023-04-22T15:05:52.569Z,0.2
2023-04-22T15:07:02.253Z,0.5
2023-04-22T15:08:12.914Z,0.1
2023-04-22T15:09:21.601Z,0.8
2023-04-22T15:10:30.301Z,0.5
2023-04-22T15:11:39.965Z,0.1
2023-04-22T15:12:48.638Z,0
2023-04-22T15:13:58.377Z,0.4
2023-04-22T15:15:07.064Z,0.3
2023-04-22T15:16:14.788Z,0.3
2023-04-22T15:17:24.531Z,0.4
2023-04-22T15:18:34.198Z,0.5
2023-04-22T15:19:42.906Z,0.1
2023-04-22T15:20:52.604Z,0.2
2023-04-22T15:22:01.254Z,0.6
2023-04-22T15:23:09.953Z,0.2
2023-04-22T15:24:19.656Z,0.4
2023-04-22T15:25:28.324Z,0.4
2023-04-22T15:26:37.994Z,0.1
2023-04-22T15:27:47.684Z,0.2
2023-04-22T15:28:56.360Z,0.2
2023-04-22T15:30:06.041Z,0.3
2023-04-22T15:31:14.742Z,0.2
2023-04-22T15:32:22.397Z,0.2
2023-04-22T15:33:31.082Z,0.2
2023-04-22T15:34:40.738Z,0.1
2023-04-22T15:35:48.434Z,0.2
2023-04-22T15:36:58.069Z,0.2
2023-04-22T15:38:06.799Z,0
2023-04-22T15:39:14.570Z,0.2
2023-04-22T15:40:24.253Z,0.2
2023-04-22T15:41:32.921Z,0.4
2023-04-22T15:42:42.638Z,0.4
2023-04-22T15:43:51.354Z,0.5
2023-04-22T15:45:01.800Z,1
2023-04-22T15:46:10.846Z,0.1
2023-04-22T15:47:19.638Z,0.3
2023-04-22T15:48:28.421Z,0.7
2023-04-22T15:49:38.277Z,0.1
2023-04-22T15:50:47.838Z,0.4
2023-04-22T15:51:57.535Z,0.2
2023-04-22T15:53:07.175Z,0.2
2023-04-22T15:54:14.854Z,0.1
2023-04-22T15:55:24.538Z,0.2